createdAt,value
2023-01-09T00:00:40.231Z,2.90
2023-01-09T00:03:22.902Z,2.80
2023-01-09T00:05:50.301Z,2.80
2023-01-09T00:08:18.439Z,2.90
2023-01-09T00:10:46.001Z,3.10
2023-01-09T00:13:13.774Z,2.90
2023-01-09T00:15:41.950Z,2.90
2023-01-09T00:18:09.144Z,2.90
2023-01-09T00:20:37.033Z,2.90
2023-01-09T00:23:04.216Z,2.90
2023-01-09T00:25:31.808Z,2.90
2023-01-09T00:27:58.920Z,3.00
2023-01-09T00:30:26.369Z,3.00
2023-01-09T00:32:55.178Z,3.00
2023-01-09T00:35:24.707Z,3.00
2023-01-09T00:37:51.981Z,3.00
2023-01-09T00:40:19.922Z,3.20
2023-01-09T00:42:51.534Z,3.00
2023-01-09T00:45:28.693Z,3.00
2023-01-09T00:47:58.615Z,3.00
2023-01-09T00:50:30.871Z,3.10
2023-01-09T00:53:03.484Z,3.00
2023-01-09T00:55:31.183Z,2.90
2023-01-09T00:57:58.310Z,3.30
2023-01-09T01:00:25.650Z,3.00
2023-01-09T01:02:52.780Z,3.50
2023-01-09T01:05:38.683Z,2.90
2023-01-09T01:08:13.532Z,2.90
2023-01-09T01:10:41.287Z,2.90
2023-01-09T01:13:08.644Z,2.90
2023-01-09T01:15:39.294Z,2.90
2023-01-09T01:18:06.850Z,2.90
2023-01-09T01:20:34.299Z,2.90
2023-01-09T01:23:01.533Z,2.90
2023-01-09T01:25:28.870Z,2.90
2023-01-09T01:27:55.993Z,2.90
2023-01-09T01:30:23.351Z,2.80
2023-01-09T01:32:50.558Z,2.80
2023-01-09T01:35:17.933Z,2.90
2023-01-09T01:37:45.004Z,2.90
2023-01-09T01:40:12.775Z,2.90
2023-01-09T01:42:50.171Z,2.90
2023-01-09T01:45:20.562Z,2.90
2023-01-09T01:48:02.418Z,2.80
2023-01-09T01:50:38.163Z,2.90
2023-01-09T01:53:14.239Z,2.90
2023-01-09T01:55:47.079Z,2.90
2023-01-09T01:58:15.485Z,2.90
2023-01-09T02:00:45.656Z,2.90
2023-01-09T02:03:17.338Z,2.90
2023-01-09T02:05:45.271Z,3.00
2023-01-09T02:08:12.727Z,3.00
2023-01-09T02:10:41.095Z,3.00
2023-01-09T02:13:09.863Z,3.30
2023-01-09T02:15:47.987Z,3.40
2023-01-09T02:18:46.735Z,3.10
2023-01-09T02:21:50.459Z,3.10
2023-01-09T02:24:27.034Z,3.10
2023-01-09T02:27:20.389Z,3.10
2023-01-09T02:30:05.665Z,3.10
2023-01-09T02:32:51.764Z,3.20
2023-01-09T02:35:28.175Z,3.20
2023-01-09T02:38:06.734Z,3.20
2023-01-09T02:40:42.935Z,3.40
2023-01-09T02:43:11.677Z,3.20
2023-01-09T02:45:38.842Z,3.20
2023-01-09T02:48:06.479Z,3.30
2023-01-09T02:50:59.018Z,3.30
2023-01-09T02:53:58.644Z,3.30
2023-01-09T02:56:42.307Z,3.30
2023-01-09T02:59:15.422Z,3.30
2023-01-09T03:02:08.030Z,3.30
2023-01-09T03:04:51.681Z,3.40
2023-01-09T03:07:36.665Z,3.40
2023-01-09T03:10:19.037Z,3.40
2023-01-09T03:12:48.623Z,3.40
2023-01-09T03:15:19.043Z,3.40
2023-01-09T03:17:49.452Z,3.40
2023-01-09T03:20:22.234Z,3.40
2023-01-09T03:22:58.121Z,3.40
2023-01-09T03:25:27.214Z,3.40
2023-01-09T03:28:04.320Z,3.50
2023-01-09T03:30:33.556Z,3.40
2023-01-09T03:33:01.004Z,3.50
2023-01-09T03:35:28.783Z,3.50
2023-01-09T03:37:55.817Z,3.50
2023-01-09T03:40:23.330Z,3.50
2023-01-09T03:42:50.331Z,3.90
2023-01-09T03:45:17.721Z,3.60
2023-01-09T03:47:44.887Z,3.60
2023-01-09T03:50:12.338Z,5.00
2023-01-09T03:52:39.503Z,3.60
2023-01-09T03:55:07.286Z,4.00
2023-01-09T03:57:34.431Z,3.60
2023-01-09T04:00:01.883Z,3.60
2023-01-09T04:02:39.482Z,3.60
2023-01-09T04:05:07.801Z,3.60
2023-01-09T04:07:34.974Z,3.60
2023-01-09T04:10:02.669Z,3.60
2023-01-09T04:12:29.734Z,3.50
2023-01-09T04:14:57.182Z,3.50
2023-01-09T04:17:24.222Z,3.50
2023-01-09T04:19:51.648Z,3.50
2023-01-09T04:22:18.723Z,3.50
2023-01-09T04:24:46.031Z,3.50
2023-01-09T04:27:13.151Z,3.50
2023-01-09T04:29:40.537Z,3.50
2023-01-09T04:32:07.598Z,3.50
2023-01-09T04:34:34.903Z,3.50
2023-01-09T04:37:02.024Z,3.50
2023-01-09T04:39:29.348Z,3.50
2023-01-09T04:41:56.503Z,3.50
2023-01-09T04:44:28.294Z,3.50
2023-01-09T04:46:57.087Z,3.50
2023-01-09T04:49:24.647Z,3.50
2023-01-09T04:51:51.809Z,3.50
2023-01-09T04:54:19.893Z,3.50
2023-01-09T04:56:47.024Z,3.40
2023-01-09T04:59:14.664Z,3.40
2023-01-09T05:01:42.086Z,3.40
2023-01-09T05:04:09.760Z,3.40
2023-01-09T05:06:37.279Z,3.30
2023-01-09T05:09:04.698Z,3.30
2023-01-09T05:11:31.709Z,3.30
2023-01-09T05:13:59.135Z,3.20
2023-01-09T05:16:26.335Z,3.20
2023-01-09T05:18:56.678Z,3.20
2023-01-09T05:21:27.375Z,3.30
2023-01-09T05:23:54.792Z,3.20
2023-01-09T05:26:25.610Z,3.20
2023-01-09T05:28:53.817Z,3.20
2023-01-09T05:31:21.231Z,3.20
2023-01-09T05:33:48.987Z,4.30
2023-01-09T05:36:16.330Z,3.10
2023-01-09T05:38:43.745Z,3.10
2023-01-09T05:41:10.946Z,3.10
2023-01-09T05:43:38.282Z,3.10
2023-01-09T05:46:05.620Z,4.00
2023-01-09T05:48:33.072Z,3.00
2023-01-09T05:51:00.138Z,3.00
2023-01-09T05:53:27.446Z,3.40
2023-01-09T05:55:54.547Z,3.00
2023-01-09T05:58:21.973Z,3.00
2023-01-09T06:00:49.528Z,3.00
2023-01-09T06:03:17.089Z,3.00
2023-01-09T06:05:44.546Z,3.00
2023-01-09T06:08:11.968Z,3.00
2023-01-09T06:10:39.045Z,3.00
2023-01-09T06:13:06.359Z,3.00
2023-01-09T06:15:33.559Z,3.00
2023-01-09T06:18:00.884Z,3.00
2023-01-09T06:20:28.031Z,3.00
2023-01-09T06:22:55.319Z,3.00
2023-01-09T06:25:22.595Z,3.00
2023-01-09T06:27:52.231Z,3.00
2023-01-09T06:30:20.001Z,3.00
2023-01-09T06:32:50.254Z,3.00
2023-01-09T06:35:22.319Z,3.00
2023-01-09T06:37:50.283Z,3.10
2023-01-09T06:40:18.369Z,3.10
2023-01-09T06:42:46.900Z,3.10
2023-01-09T06:45:14.469Z,3.10
2023-01-09T06:47:42.343Z,3.10
2023-01-09T06:50:10.274Z,3.10
2023-01-09T06:52:38.081Z,3.10
2023-01-09T06:55:05.882Z,3.10
2023-01-09T06:57:33.166Z,3.10
2023-01-09T07:00:00.372Z,3.10
2023-01-09T07:02:27.815Z,3.20
2023-01-09T07:04:55.033Z,3.10
2023-01-09T07:07:22.655Z,3.20
2023-01-09T07:09:50.126Z,3.10
2023-01-09T07:12:17.699Z,3.10
2023-01-09T07:14:44.809Z,3.20
2023-01-09T07:17:15.016Z,3.20
2023-01-09T07:19:42.655Z,3.20
2023-01-09T07:22:10.886Z,4.30
2023-01-09T07:24:37.958Z,3.20
2023-01-09T07:27:05.450Z,3.20
2023-01-09T07:29:32.611Z,3.20
2023-01-09T07:31:59.983Z,3.20
2023-01-09T07:34:27.061Z,3.20
2023-01-09T07:36:54.741Z,3.20
2023-01-09T07:39:21.884Z,3.20
2023-01-09T07:41:49.454Z,3.30
2023-01-09T07:44:16.725Z,3.30
2023-01-09T07:46:44.245Z,3.30
2023-01-09T07:49:11.262Z,3.30
2023-01-09T07:51:42.958Z,3.30
2023-01-09T07:54:11.581Z,3.30
2023-01-09T07:56:40.385Z,3.30
2023-01-09T07:59:07.469Z,3.30
2023-01-09T08:01:34.890Z,3.30
2023-01-09T08:04:02.187Z,3.30
2023-01-09T08:06:30.068Z,3.40
2023-01-09T08:08:58.389Z,3.40
2023-01-09T08:11:25.882Z,3.40
2023-01-09T08:13:53.364Z,3.50
2023-01-09T08:16:20.475Z,3.40
2023-01-09T08:18:50.714Z,3.40
2023-01-09T08:21:17.787Z,3.50
2023-01-09T08:23:45.656Z,3.70
2023-01-09T08:26:13.013Z,3.40
2023-01-09T08:28:40.389Z,4.80
2023-01-09T08:31:07.594Z,3.50
2023-01-09T08:33:34.976Z,3.80
2023-01-09T08:36:02.219Z,3.50
2023-01-09T08:38:29.602Z,3.50
2023-01-09T08:40:56.693Z,4.70
2023-01-09T08:43:42.890Z,4.00
2023-01-09T08:46:38.211Z,3.60
2023-01-09T08:49:05.590Z,3.60
2023-01-09T08:51:32.779Z,3.70
2023-01-09T08:54:00.180Z,3.70
2023-01-09T08:56:27.377Z,3.70
2023-01-09T08:58:54.754Z,3.70
2023-01-09T09:01:21.892Z,4.10
2023-01-09T09:03:49.316Z,3.80
2023-01-09T09:06:16.385Z,3.80
2023-01-09T09:08:45.851Z,3.80
2023-01-09T09:11:12.925Z,3.80
2023-01-09T09:13:40.372Z,3.80
2023-01-09T09:16:07.585Z,3.90
2023-01-09T09:18:34.886Z,3.90
2023-01-09T09:21:01.934Z,3.90
2023-01-09T09:23:29.332Z,3.90
2023-01-09T09:25:56.656Z,4.00
2023-01-09T09:28:24.025Z,4.00
2023-01-09T09:30:51.196Z,3.90
2023-01-09T09:33:18.591Z,4.60
2023-01-09T09:35:45.930Z,4.00
2023-01-09T09:38:13.450Z,5.00
2023-01-09T09:41:04.752Z,4.10
2023-01-09T09:44:25.181Z,4.20
2023-01-09T09:47:25.628Z,4.20
2023-01-09T09:50:05.240Z,4.30
2023-01-09T09:52:45.605Z,4.30
2023-01-09T09:55:27.326Z,4.40
2023-01-09T09:57:56.441Z,4.40
2023-01-09T10:00:24.047Z,4.40
2023-01-09T10:03:04.904Z,4.40
2023-01-09T10:05:36.950Z,4.50
2023-01-09T10:08:32.277Z,4.50
2023-01-09T10:11:00.922Z,4.50
2023-01-09T10:13:46.445Z,4.50
2023-01-09T10:16:25.519Z,4.50
2023-01-09T10:19:01.337Z,4.50
2023-01-09T10:21:57.610Z,4.50
2023-01-09T10:24:37.573Z,4.50
2023-01-09T10:27:21.196Z,4.50
2023-01-09T10:30:01.609Z,4.50
2023-01-09T10:32:53.427Z,4.50
2023-01-09T10:36:11.686Z,4.50
2023-01-09T10:38:43.248Z,4.50
2023-01-09T10:41:25.441Z,4.50
2023-01-09T10:44:15.257Z,4.50
2023-01-09T10:46:49.350Z,5.00
2023-01-09T10:49:18.551Z,4.70
2023-01-09T10:52:20.549Z,4.60
2023-01-09T10:55:01.701Z,4.60
2023-01-09T10:57:42.105Z,4.60
2023-01-09T11:00:23.355Z,4.60
2023-01-09T11:02:52.594Z,4.50
2023-01-09T11:05:23.325Z,4.50
2023-01-09T11:08:12.060Z,4.60
2023-01-09T11:10:49.613Z,4.90
2023-01-09T11:13:19.534Z,4.60
2023-01-09T11:15:58.824Z,4.60
2023-01-09T11:18:26.219Z,4.60
2023-01-09T11:20:53.759Z,4.60
2023-01-09T11:23:29.549Z,4.60
2023-01-09T11:26:02.644Z,4.60
2023-01-09T11:28:30.288Z,4.60
2023-01-09T11:31:02.371Z,4.70
2023-01-09T11:33:38.321Z,4.70
2023-01-09T11:36:13.546Z,5.00
2023-01-09T11:38:55.993Z,4.70
2023-01-09T11:41:27.049Z,4.70
2023-01-09T11:43:57.262Z,4.60
2023-01-09T11:46:33.561Z,4.60
2023-01-09T11:49:02.519Z,4.60
2023-01-09T11:51:33.031Z,4.60
2023-01-09T11:54:12.792Z,4.60
2023-01-09T11:56:40.654Z,4.60
2023-01-09T11:59:12.678Z,4.60
2023-01-09T12:01:49.079Z,5.10
2023-01-09T12:04:32.184Z,6.40
2023-01-09T12:07:23.456Z,4.70
2023-01-09T12:09:54.965Z,4.70
2023-01-09T12:13:05.696Z,4.70
2023-01-09T12:15:43.844Z,4.70
2023-01-09T12:18:24.051Z,4.80
2023-01-09T12:21:22.523Z,4.80
2023-01-09T12:24:04.801Z,4.80
2023-01-09T12:26:45.232Z,4.80
2023-01-09T12:29:27.087Z,4.80
2023-01-09T12:32:18.787Z,4.80
2023-01-09T12:35:08.265Z,4.90
2023-01-09T12:37:50.229Z,4.80
2023-01-09T12:40:33.967Z,4.80
2023-01-09T12:43:24.148Z,4.80
2023-01-09T12:45:57.356Z,4.90
2023-01-09T12:48:59.730Z,4.90
2023-01-09T12:51:49.483Z,4.80
2023-01-09T12:54:26.517Z,4.80
2023-01-09T12:57:31.673Z,4.80
2023-01-09T13:00:05.095Z,4.80
2023-01-09T13:03:11.206Z,4.80
2023-01-09T13:05:53.598Z,4.80
2023-01-09T13:08:42.465Z,5.80
2023-01-09T13:11:24.638Z,4.70
2023-01-09T13:13:57.305Z,4.70
2023-01-09T13:16:30.601Z,4.60
2023-01-09T13:19:13.171Z,4.90
2023-01-09T13:21:41.228Z,4.70
2023-01-09T13:24:16.642Z,4.70
2023-01-09T13:26:58.007Z,4.60
2023-01-09T13:29:29.875Z,4.60
2023-01-09T13:32:17.905Z,4.60
2023-01-09T13:34:52.617Z,4.60
2023-01-09T13:37:26.990Z,4.50
2023-01-09T13:40:19.099Z,4.50
2023-01-09T13:43:05.274Z,4.50
2023-01-09T13:45:35.718Z,4.50
2023-01-09T13:48:09.736Z,4.40
2023-01-09T13:50:38.885Z,4.40
2023-01-09T13:53:17.917Z,4.30
2023-01-09T13:56:06.731Z,4.30
2023-01-09T13:58:43.319Z,4.30
2023-01-09T14:01:36.241Z,4.30
2023-01-09T14:04:14.658Z,4.20
2023-01-09T14:06:44.988Z,4.20
2023-01-09T14:09:23.050Z,4.20
2023-01-09T14:12:03.306Z,4.20
2023-01-09T14:14:33.277Z,4.20
2023-01-09T14:17:03.467Z,4.60
2023-01-09T14:19:39.360Z,4.20
2023-01-09T14:22:08.256Z,5.10
2023-01-09T14:24:47.154Z,4.20
2023-01-09T14:27:52.265Z,4.20
2023-01-09T14:30:34.894Z,4.20
2023-01-09T14:33:17.665Z,4.20
2023-01-09T14:36:11.365Z,5.60
2023-01-09T14:38:52.002Z,4.10
2023-01-09T14:41:56.721Z,4.10
2023-01-09T14:44:50.816Z,4.10
2023-01-09T14:47:30.831Z,4.10
2023-01-09T14:50:07.385Z,4.10
2023-01-09T14:52:48.217Z,4.20
2023-01-09T14:55:29.975Z,4.10
2023-01-09T14:58:33.190Z,4.10
2023-01-09T15:01:02.013Z,4.20
2023-01-09T15:03:44.638Z,4.20
2023-01-09T15:06:26.654Z,4.20
2023-01-09T15:09:07.122Z,4.20
2023-01-09T15:11:39.487Z,4.30
2023-01-09T15:14:08.836Z,4.30
2023-01-09T15:16:36.693Z,4.30
2023-01-09T15:19:07.627Z,4.30
2023-01-09T15:21:35.031Z,4.30
2023-01-09T15:24:27.140Z,4.30
2023-01-09T15:26:58.369Z,5.40
2023-01-09T15:29:26.756Z,4.30
2023-01-09T15:32:01.918Z,4.40
2023-01-09T15:34:29.499Z,4.40
2023-01-09T15:36:56.889Z,4.40
2023-01-09T15:39:31.490Z,4.40
2023-01-09T15:42:18.924Z,4.40
2023-01-09T15:44:48.941Z,4.40
2023-01-09T15:47:20.566Z,4.70
2023-01-09T15:49:47.733Z,5.80
2023-01-09T15:52:16.949Z,4.50
2023-01-09T15:54:46.994Z,4.50
2023-01-09T15:57:32.931Z,4.80
2023-01-09T16:00:29.201Z,4.80
2023-01-09T16:03:11.896Z,4.60
2023-01-09T16:05:45.093Z,4.60
2023-01-09T16:08:22.421Z,4.60
2023-01-09T16:10:50.650Z,4.90
2023-01-09T16:13:18.136Z,4.70
2023-01-09T16:15:46.128Z,4.70
2023-01-09T16:18:16.359Z,4.70
2023-01-09T16:20:45.168Z,4.80
2023-01-09T16:23:29.103Z,4.80
2023-01-09T16:26:09.708Z,4.80
2023-01-09T16:28:40.836Z,4.80
2023-01-09T16:31:20.315Z,4.80
2023-01-09T16:33:52.213Z,4.80
2023-01-09T16:36:21.211Z,4.80
2023-01-09T16:38:48.586Z,4.90
2023-01-09T16:41:38.997Z,4.90
2023-01-09T16:44:11.945Z,5.00
2023-01-09T16:46:43.646Z,5.80
2023-01-09T16:49:23.579Z,5.00
2023-01-09T16:51:51.900Z,5.00
2023-01-09T16:54:20.281Z,5.10
2023-01-09T16:56:54.172Z,5.00
2023-01-09T16:59:26.480Z,5.00
2023-01-09T17:01:54.533Z,5.00
2023-01-09T17:04:23.811Z,5.10
2023-01-09T17:06:51.856Z,5.10
2023-01-09T17:09:23.167Z,5.20
2023-01-09T17:11:53.808Z,5.20
2023-01-09T17:14:21.192Z,5.20
2023-01-09T17:16:48.453Z,5.20
2023-01-09T17:19:21.481Z,5.20
2023-01-09T17:21:48.570Z,5.40
2023-01-09T17:24:34.874Z,5.30
2023-01-09T17:27:21.398Z,5.30
2023-01-09T17:29:48.859Z,6.50
2023-01-09T17:32:17.854Z,5.30
2023-01-09T17:34:45.339Z,5.40
2023-01-09T17:37:17.458Z,5.40
2023-01-09T17:39:46.005Z,5.50
2023-01-09T17:42:13.237Z,5.50
2023-01-09T17:44:41.000Z,5.50
2023-01-09T17:47:15.034Z,5.70
2023-01-09T17:49:42.647Z,5.60
2023-01-09T17:52:09.899Z,5.60
2023-01-09T17:54:37.364Z,7.00
2023-01-09T17:57:04.651Z,5.60
2023-01-09T17:59:32.166Z,5.60
2023-01-09T18:01:59.432Z,5.70
2023-01-09T18:04:26.847Z,5.70
2023-01-09T18:06:54.650Z,5.70
2023-01-09T18:09:22.048Z,5.80
2023-01-09T18:11:49.081Z,5.90
2023-01-09T18:14:17.570Z,5.80
2023-01-09T18:16:45.400Z,5.80
2023-01-09T18:19:12.928Z,5.80
2023-01-09T18:21:40.080Z,5.90
2023-01-09T18:24:08.475Z,5.90
2023-01-09T18:26:35.560Z,5.90
2023-01-09T18:29:03.599Z,5.90
2023-01-09T18:31:31.078Z,5.90
2023-01-09T18:34:02.381Z,5.90
2023-01-09T18:36:30.415Z,6.00
2023-01-09T18:39:00.541Z,6.50
2023-01-09T18:41:28.861Z,6.00
2023-01-09T18:43:58.381Z,6.10
2023-01-09T18:46:26.387Z,6.30
2023-01-09T18:48:58.950Z,6.10
2023-01-09T18:51:27.287Z,6.20
2023-01-09T18:53:55.233Z,6.20
2023-01-09T18:56:24.746Z,6.20
2023-01-09T18:58:59.996Z,6.20
2023-01-09T19:01:28.665Z,6.30
2023-01-09T19:03:57.529Z,6.30
2023-01-09T19:06:24.824Z,6.40
2023-01-09T19:08:52.441Z,6.40
2023-01-09T19:11:19.682Z,6.40
2023-01-09T19:13:47.621Z,6.40
2023-01-09T19:16:14.702Z,6.50
2023-01-09T19:18:43.083Z,6.50
2023-01-09T19:21:19.455Z,6.50
2023-01-09T19:23:48.615Z,6.60
2023-01-09T19:26:27.026Z,6.60
2023-01-09T19:28:57.202Z,6.60
2023-01-09T19:31:25.891Z,6.70
2023-01-09T19:33:53.831Z,6.70
2023-01-09T19:36:22.433Z,6.70
2023-01-09T19:38:55.003Z,6.70
2023-01-09T19:41:22.090Z,6.80
2023-01-09T19:43:49.440Z,6.80
2023-01-09T19:46:19.854Z,6.80
2023-01-09T19:48:48.511Z,6.80
2023-01-09T19:51:17.020Z,7.00
2023-01-09T19:53:44.972Z,6.90
2023-01-09T19:56:17.782Z,6.90
2023-01-09T19:58:56.082Z,7.70
2023-01-09T20:01:26.109Z,7.00
2023-01-09T20:03:54.844Z,7.00
2023-01-09T20:06:24.758Z,7.00
2023-01-09T20:08:57.309Z,7.10
2023-01-09T20:11:26.845Z,7.10
2023-01-09T20:13:55.636Z,7.10
2023-01-09T20:16:30.452Z,7.10
2023-01-09T20:19:00.403Z,7.20
2023-01-09T20:21:28.917Z,7.20
2023-01-09T20:23:59.172Z,7.20
2023-01-09T20:26:27.418Z,7.20
2023-01-09T20:28:55.342Z,7.20
2023-01-09T20:31:25.061Z,7.20
2023-01-09T20:33:52.608Z,7.10
2023-01-09T20:36:27.261Z,7.30
2023-01-09T20:38:55.464Z,7.20
2023-01-09T20:41:22.797Z,7.30
2023-01-09T20:43:51.618Z,7.30
2023-01-09T20:46:20.180Z,7.30
2023-01-09T20:48:47.953Z,7.30
2023-01-09T20:51:15.027Z,7.90
2023-01-09T20:53:55.946Z,7.90
2023-01-09T20:56:24.791Z,7.40
2023-01-09T20:58:52.787Z,7.40
2023-01-09T21:01:20.788Z,7.40
2023-01-09T21:03:49.904Z,7.40
2023-01-09T21:06:18.470Z,7.90
2023-01-09T21:08:47.220Z,7.60
2023-01-09T21:11:15.518Z,7.40
2023-01-09T21:13:43.193Z,7.50
2023-01-09T21:16:13.148Z,7.50
2023-01-09T21:18:41.596Z,7.50
2023-01-09T21:21:13.272Z,8.50
2023-01-09T21:23:48.305Z,7.50
2023-01-09T21:26:16.959Z,7.50
2023-01-09T21:28:48.948Z,7.50
2023-01-09T21:31:21.583Z,7.50
2023-01-09T21:33:49.363Z,7.50
2023-01-09T21:36:17.279Z,7.50
2023-01-09T21:38:45.845Z,7.50
2023-01-09T21:41:32.992Z,8.20
2023-01-09T21:44:19.024Z,7.50
2023-01-09T21:46:52.219Z,7.40
2023-01-09T21:49:23.151Z,7.90
2023-01-09T21:51:50.284Z,7.40
2023-01-09T21:54:17.680Z,7.90
2023-01-09T21:56:44.808Z,7.40
2023-01-09T21:59:12.332Z,7.40
2023-01-09T22:01:39.486Z,8.00
2023-01-09T22:04:07.001Z,7.30
2023-01-09T22:06:35.481Z,7.40
2023-01-09T22:09:03.024Z,7.30
2023-01-09T22:11:30.180Z,7.30
2023-01-09T22:13:57.696Z,7.30
2023-01-09T22:16:27.169Z,7.20
2023-01-09T22:18:55.590Z,7.20
2023-01-09T22:21:23.705Z,8.20
2023-01-09T22:23:51.558Z,7.10
2023-01-09T22:26:19.529Z,8.00
2023-01-09T22:28:47.499Z,7.30
2023-01-09T22:31:18.893Z,7.10
2023-01-09T22:33:54.143Z,7.10
2023-01-09T22:36:21.665Z,7.10
2023-01-09T22:38:48.972Z,7.00
2023-01-09T22:41:16.068Z,7.00
2023-01-09T22:43:43.510Z,7.00
2023-01-09T22:46:11.838Z,7.00
2023-01-09T22:48:40.105Z,7.00
2023-01-09T22:51:12.603Z,7.00
2023-01-09T22:53:40.378Z,7.00
2023-01-09T22:56:14.075Z,7.00
2023-01-09T22:58:41.612Z,7.00
2023-01-09T23:01:12.186Z,6.90
2023-01-09T23:03:40.362Z,6.90
2023-01-09T23:06:13.910Z,6.90
2023-01-09T23:08:42.075Z,6.90
2023-01-09T23:11:12.002Z,6.90
2023-01-09T23:13:39.925Z,6.90
2023-01-09T23:16:07.603Z,6.80
2023-01-09T23:18:35.053Z,6.90
2023-01-09T23:21:04.668Z,7.10
2023-01-09T23:23:32.738Z,7.10
2023-01-09T23:26:04.888Z,6.80
2023-01-09T23:28:32.242Z,6.80
2023-01-09T23:30:59.330Z,6.80
2023-01-09T23:33:26.666Z,6.80
2023-01-09T23:35:53.793Z,6.80
2023-01-09T23:38:21.080Z,7.60
2023-01-09T23:40:48.200Z,6.80
2023-01-09T23:43:15.663Z,6.90
2023-01-09T23:45:44.891Z,7.00
2023-01-09T23:48:17.014Z,7.00
2023-01-09T23:50:51.379Z,6.70
2023-01-09T23:53:21.329Z,6.70
2023-01-09T23:55:49.677Z,6.70
2023-01-09T23:58:17.191Z,6.70
